createdAt,value
2022-10-20T00:02:52.289Z,9.33
2022-10-20T00:08:23.698Z,9.31
2022-10-20T00:13:56.273Z,9.29
2022-10-20T00:19:28.740Z,9.22
2022-10-20T00:24:59.978Z,9.19
2022-10-20T00:30:30.894Z,9.18
2022-10-20T00:36:04.538Z,9.18
2022-10-20T00:41:35.692Z,9.11
2022-10-20T00:47:13.692Z,9.07
2022-10-20T00:52:46.824Z,9.04
2022-10-20T00:58:19.121Z,9.02
2022-10-20T01:03:51.792Z,8.96
2022-10-20T01:09:22.981Z,8.92
2022-10-20T01:14:54.074Z,8.90
2022-10-20T01:20:41.848Z,8.87
2022-10-20T01:26:41.565Z,8.88
2022-10-20T01:32:22.864Z,8.91
2022-10-20T01:37:59.238Z,8.85
2022-10-20T01:43:34.150Z,8.81
2022-10-20T01:49:05.887Z,8.83
2022-10-20T01:54:37.102Z,8.81
2022-10-20T02:00:12.204Z,8.79
2022-10-20T02:06:05.229Z,8.81
2022-10-20T02:11:54.972Z,8.79
2022-10-20T02:17:26.655Z,8.78
2022-10-20T02:22:59.268Z,8.64
2022-10-20T02:28:30.246Z,8.54
2022-10-20T02:34:02.435Z,8.49
2022-10-20T02:39:33.700Z,8.47
2022-10-20T02:45:05.463Z,8.48
2022-10-20T02:50:36.858Z,8.48
2022-10-20T02:56:07.981Z,8.38
2022-10-20T03:01:39.274Z,8.35
2022-10-20T03:07:11.000Z,8.34
2022-10-20T03:12:42.149Z,8.34
2022-10-20T03:18:13.413Z,8.35
2022-10-20T03:23:44.451Z,8.34
2022-10-20T03:29:15.433Z,8.26
2022-10-20T03:34:46.370Z,8.27
2022-10-20T03:40:18.043Z,8.24
2022-10-20T03:45:48.947Z,8.26
2022-10-20T03:51:20.178Z,8.25
2022-10-20T03:56:51.346Z,8.17
2022-10-20T04:02:38.630Z,8.07
2022-10-20T04:08:10.107Z,8.09
2022-10-20T04:13:41.236Z,8.13
2022-10-20T04:19:12.133Z,8.16
2022-10-20T04:24:43.360Z,8.16
2022-10-20T04:30:14.636Z,8.09
2022-10-20T04:35:45.679Z,8.11
2022-10-20T04:41:16.918Z,8.12
2022-10-20T04:46:48.351Z,8.07
2022-10-20T04:52:20.983Z,7.99
2022-10-20T04:57:52.214Z,7.88
2022-10-20T05:03:23.188Z,7.82
2022-10-20T05:09:00.389Z,7.88
2022-10-20T05:14:31.923Z,7.75
2022-10-20T05:20:02.908Z,7.66
2022-10-20T05:25:37.241Z,7.78
2022-10-20T05:31:09.735Z,7.80
2022-10-20T05:36:40.875Z,7.78
2022-10-20T05:42:12.132Z,7.78
2022-10-20T05:47:44.253Z,7.83
2022-10-20T05:53:15.690Z,7.82
2022-10-20T05:58:47.969Z,7.78
2022-10-20T06:04:24.075Z,7.78
2022-10-20T06:09:55.386Z,7.77
2022-10-20T06:15:26.771Z,7.79
2022-10-20T06:21:06.891Z,7.81
2022-10-20T06:26:39.113Z,7.87
2022-10-20T06:32:10.334Z,7.88
2022-10-20T06:37:41.488Z,7.90
2022-10-20T06:43:12.362Z,7.93
2022-10-20T06:48:43.540Z,7.91
2022-10-20T06:54:14.900Z,7.88
2022-10-20T06:59:48.214Z,7.77
2022-10-20T07:05:20.252Z,7.78
2022-10-20T07:11:07.488Z,7.81
2022-10-20T07:16:38.554Z,7.86
2022-10-20T07:22:09.467Z,7.87
2022-10-20T07:27:40.460Z,7.94
2022-10-20T07:33:11.300Z,7.97
2022-10-20T07:38:42.658Z,7.99
2022-10-20T07:44:13.983Z,8.09
2022-10-20T07:49:45.401Z,8.17
2022-10-20T07:55:33.481Z,8.11
2022-10-20T08:01:07.884Z,8.19
2022-10-20T08:06:39.610Z,8.24
2022-10-20T08:12:11.041Z,8.35
2022-10-20T08:17:42.104Z,8.46
2022-10-20T08:23:13.931Z,8.60
2022-10-20T08:28:44.854Z,8.69
2022-10-20T08:34:15.945Z,8.74
2022-10-20T08:39:46.904Z,8.79
2022-10-20T08:45:23.591Z,8.87
2022-10-20T08:50:55.523Z,8.94
2022-10-20T08:56:29.850Z,9.00
2022-10-20T09:02:01.925Z,9.07
2022-10-20T09:07:36.293Z,9.18
2022-10-20T09:13:29.247Z,9.26
2022-10-20T09:19:01.232Z,9.36
2022-10-20T09:24:32.645Z,9.45
2022-10-20T09:30:19.313Z,9.52
2022-10-20T09:35:51.265Z,9.60
2022-10-20T09:41:26.164Z,9.67
2022-10-20T09:46:57.467Z,9.75
2022-10-20T09:52:36.097Z,9.82
2022-10-20T09:58:17.174Z,9.91
2022-10-20T10:03:51.990Z,10.01
2022-10-20T10:09:35.365Z,10.08
2022-10-20T10:15:24.309Z,10.18
2022-10-20T10:21:04.645Z,10.28
2022-10-20T10:26:46.062Z,10.35
2022-10-20T10:32:21.228Z,10.43
2022-10-20T10:37:53.132Z,10.52
2022-10-20T10:44:04.020Z,10.59
2022-10-20T10:49:51.797Z,10.69
2022-10-20T10:55:47.784Z,10.74
2022-10-20T11:01:44.586Z,10.81
2022-10-20T11:07:37.303Z,10.89
2022-10-20T11:13:33.232Z,10.98
2022-10-20T11:19:16.366Z,11.04
2022-10-20T11:25:28.474Z,11.12
2022-10-20T11:30:59.817Z,11.17
2022-10-20T11:36:35.632Z,11.21
2022-10-20T11:42:43.545Z,11.26
2022-10-20T11:48:42.614Z,11.30
2022-10-20T11:54:14.442Z,11.32
2022-10-20T11:59:46.194Z,11.34
2022-10-20T12:05:54.483Z,11.36
2022-10-20T12:11:25.537Z,11.38
2022-10-20T12:16:58.992Z,11.40
2022-10-20T12:22:29.931Z,11.46
2022-10-20T12:28:23.043Z,11.47
2022-10-20T12:33:54.172Z,11.50
2022-10-20T12:39:31.651Z,11.53
2022-10-20T12:45:07.371Z,11.56
2022-10-20T12:50:43.741Z,11.58
2022-10-20T12:56:20.023Z,11.58
2022-10-20T13:02:09.143Z,11.60
2022-10-20T13:07:46.312Z,11.61
2022-10-20T13:13:20.379Z,11.64
2022-10-20T13:18:52.777Z,11.67
2022-10-20T13:24:32.112Z,11.70
2022-10-20T13:30:08.126Z,11.73
2022-10-20T13:36:03.541Z,11.72
2022-10-20T13:41:58.278Z,11.74
2022-10-20T13:47:55.880Z,11.80
2022-10-20T13:53:31.602Z,11.80
2022-10-20T13:59:07.143Z,11.81
2022-10-20T14:04:39.100Z,11.80
2022-10-20T14:10:39.436Z,11.78
2022-10-20T14:16:23.088Z,11.78
2022-10-20T14:21:57.240Z,11.79
2022-10-20T14:27:33.373Z,11.78
2022-10-20T14:33:05.596Z,11.77
2022-10-20T14:38:38.021Z,11.74
2022-10-20T14:44:31.087Z,11.73
2022-10-20T14:50:02.773Z,11.72
2022-10-20T14:55:37.257Z,11.70
2022-10-20T15:01:14.542Z,11.69
2022-10-20T15:06:45.647Z,11.68
2022-10-20T15:12:22.491Z,11.64
2022-10-20T15:18:18.562Z,11.63
2022-10-20T15:23:50.157Z,11.59
2022-10-20T15:29:21.499Z,11.55
2022-10-20T15:34:52.487Z,11.52
2022-10-20T15:40:23.343Z,11.49
2022-10-20T15:45:55.467Z,11.46
2022-10-20T15:51:29.635Z,11.43
2022-10-20T15:57:00.662Z,11.40
2022-10-20T16:02:31.566Z,11.37
2022-10-20T16:08:02.565Z,11.34
2022-10-20T16:13:34.192Z,11.30
2022-10-20T16:19:05.796Z,11.27
2022-10-20T16:24:36.804Z,11.24
2022-10-20T16:30:08.689Z,11.19
2022-10-20T16:35:43.777Z,11.15
2022-10-20T16:41:15.904Z,11.14
2022-10-20T16:46:47.445Z,11.13
2022-10-20T16:52:18.783Z,11.11
2022-10-20T16:57:50.098Z,11.10
2022-10-20T17:03:21.102Z,11.05
2022-10-20T17:08:53.185Z,11.03
2022-10-20T17:14:24.374Z,11.01
2022-10-20T17:19:55.382Z,10.98
2022-10-20T17:25:26.969Z,10.94
2022-10-20T17:30:59.189Z,10.90
2022-10-20T17:36:31.269Z,10.86
2022-10-20T17:42:02.339Z,10.87
2022-10-20T17:47:33.303Z,10.85
2022-10-20T17:53:04.838Z,10.82
2022-10-20T17:58:36.576Z,10.78
2022-10-20T18:04:11.022Z,10.74
2022-10-20T18:09:41.999Z,10.71
2022-10-20T18:15:13.481Z,10.68
2022-10-20T18:20:55.387Z,10.66
2022-10-20T18:26:26.732Z,10.62
2022-10-20T18:31:58.313Z,10.57
2022-10-20T18:37:29.329Z,10.54
2022-10-20T18:43:01.025Z,10.47
2022-10-20T18:48:32.991Z,10.42
2022-10-20T18:54:05.218Z,10.39
2022-10-20T18:59:36.308Z,10.36
2022-10-20T19:05:07.961Z,10.36
2022-10-20T19:10:43.146Z,10.34
2022-10-20T19:16:17.485Z,10.23
2022-10-20T19:21:48.557Z,10.19
2022-10-20T19:27:26.663Z,10.17
2022-10-20T19:32:58.940Z,10.06
2022-10-20T19:38:30.123Z,10.01
2022-10-20T19:44:02.485Z,10.03
2022-10-20T19:49:33.826Z,9.91
2022-10-20T19:55:04.962Z,9.89
2022-10-20T20:00:36.010Z,9.89
2022-10-20T20:06:16.653Z,9.81
2022-10-20T20:11:47.833Z,9.74
2022-10-20T20:17:18.928Z,9.68
2022-10-20T20:22:50.121Z,9.63
2022-10-20T20:28:21.316Z,9.57
2022-10-20T20:33:53.376Z,9.52
2022-10-20T20:39:24.424Z,9.47
2022-10-20T20:44:55.712Z,9.38
2022-10-20T20:50:26.965Z,9.34
2022-10-20T20:56:00.365Z,9.30
2022-10-20T21:01:32.500Z,9.30
2022-10-20T21:07:03.857Z,9.27
2022-10-20T21:12:35.569Z,9.25
2022-10-20T21:18:06.539Z,9.23
2022-10-20T21:23:38.849Z,9.21
2022-10-20T21:29:10.632Z,9.18
2022-10-20T21:34:41.709Z,9.18
2022-10-20T21:40:12.859Z,9.15
2022-10-20T21:45:44.087Z,9.15
2022-10-20T21:51:24.259Z,9.09
2022-10-20T21:56:56.066Z,9.08
2022-10-20T22:02:26.773Z,9.06
2022-10-20T22:07:57.634Z,9.03
2022-10-20T22:13:28.506Z,9.02
2022-10-20T22:19:02.442Z,9.00
2022-10-20T22:24:35.797Z,9.01
2022-10-20T22:30:08.067Z,9.00
2022-10-20T22:35:38.975Z,9.01
2022-10-20T22:41:11.007Z,9.01
2022-10-20T22:46:42.145Z,9.00
2022-10-20T22:52:12.997Z,8.98
2022-10-20T22:57:48.364Z,8.96
2022-10-20T23:03:19.851Z,8.96
2022-10-20T23:08:53.210Z,8.97
2022-10-20T23:14:24.654Z,8.94
2022-10-20T23:19:56.325Z,8.94
2022-10-20T23:25:27.227Z,8.91
2022-10-20T23:31:12.694Z,8.88
2022-10-20T23:36:43.900Z,8.85
2022-10-20T23:42:14.892Z,8.83
2022-10-20T23:47:46.073Z,8.81
2022-10-20T23:53:17.567Z,8.79
2022-10-20T23:58:48.495Z,8.76
